Impacts TAF Board INFO
FOR SITUATIONAL AWARENESS. NOT TO BE USED FOR FLIGHT PLANNING PURPOSES.
IDs:

KSTL - St Louis/Lambert Int, MO, US

Issued at 1452 UTC 18 Nov 2017
Updated at 1529 UTC 18 Nov 2017
Potential Impact None Slight Moderate High
Time<<19/16Z 19/17Z 19/18Z 19/19Z 19/20Z 19/21Z 19/22Z 19/23Z 20/00Z 20/01Z 20/02Z 20/03Z 20/04Z
Type PRVL PRVL
VIS >6 >6
CIG -- --
Cover SKC SKC
FltCat VFR VFR
WX -- --
WDir 310 310
WSpd 12 12
WGst -- --

Raw TAF
KSTL 181452Z 1815/1918 21014G25KT P6SM -SHRA OVC035
  FM181545 33020G36KT 6SM -SHRA BR SCT008 OVC015
  TEMPO 1816/1818 BKN008
  FM181800 33020G36KT 6SM -SHRA OVC020
  FM182200 32019G35KT P6SM BKN025
  FM190600 31012KT P6SM SKC


METAR Board
Radar Display
Forecast Discussion

FOR SITUATIONAL AWARENESS. NOT TO BE USED FOR FLIGHT PLANNING PURPOSES.